Time;durP1;ratioP1;P1;durP2;ratioP2;P2;SDS_P1;SDS_P2;PMS_P1;PMS_P2;Temp;Humidity;BMP_temperature;BMP_pressure;BME280_temperature;BME280_humidity;BME280_pressure;Samples;Min_cycle;Max_cycle;Signal;HPM_P1;HPM_P2
2021/04/25 00:00:34;;;;;;;15.50;13.90;;;4.40;1.00;;;;;;5029965;28;20182;-65
2021/04/25 00:03:00;;;;;;;16.27;13.10;;;4.40;1.00;;;;;;5031320;28;20233;-67
2021/04/25 00:05:26;;;;;;;18.47;14.20;;;4.30;1.00;;;;;;5024680;28;20265;-65
2021/04/25 00:07:51;;;;;;;17.60;13.63;;;4.30;1.00;;;;;;5030533;28;20270;-65
2021/04/25 00:10:18;;;;;;;17.33;14.10;;;4.10;1.00;;;;;;5031521;28;20648;-65
2021/04/25 00:12:44;;;;;;;18.25;15.00;;;4.10;1.00;;;;;;5031478;28;20547;-65
2021/04/25 00:15:14;;;;;;;16.67;13.10;;;4.00;1.00;;;;;;5032279;28;20958;-65
2021/04/25 00:17:39;;;;;;;17.55;12.77;;;3.90;1.00;;;;;;5029408;28;20206;-64
2021/04/25 00:20:07;;;;;;;12.27;10.90;;;3.90;1.00;;;;;;5029860;28;20668;-64
2021/04/25 00:22:33;;;;;;;13.60;10.95;;;3.90;1.00;;;;;;5030184;28;20428;-64
2021/04/25 00:24:59;;;;;;;13.37;11.60;;;3.80;1.00;;;;;;5031328;28;20190;-64
2021/04/25 00:27:25;;;;;;;13.43;11.45;;;3.80;1.00;;;;;;5030489;28;20437;-64
2021/04/25 00:29:51;;;;;;;12.43;10.40;;;3.80;1.00;;;;;;5029455;28;20234;-65
2021/04/25 00:32:17;;;;;;;16.00;11.50;;;3.80;1.00;;;;;;5030046;28;20239;-64
2021/04/25 00:34:42;;;;;;;15.70;12.07;;;3.80;1.00;;;;;;5029378;28;20186;-66
2021/04/25 00:37:07;;;;;;;15.17;12.13;;;3.70;1.00;;;;;;5030701;28;20210;-66
2021/04/25 00:39:33;;;;;;;13.70;11.77;;;3.60;1.00;;;;;;5029857;28;20182;-65
2021/04/25 00:41:58;;;;;;;13.17;11.80;;;3.60;1.00;;;;;;5029247;28;20265;-66
2021/04/25 00:44:24;;;;;;;15.37;12.13;;;3.50;1.00;;;;;;5030525;28;20683;-66
2021/04/25 00:46:50;;;;;;;15.33;12.50;;;3.50;1.00;;;;;;5028491;28;20185;-65
2021/04/25 00:49:15;;;;;;;14.90;13.00;;;3.40;1.00;;;;;;5029549;28;20244;-65
2021/04/25 00:51:41;;;;;;;14.87;12.27;;;3.40;1.00;;;;;;5030159;28;20201;-65
2021/04/25 00:54:07;;;;;;;13.50;12.10;;;3.30;1.00;;;;;;5031001;28;20182;-66
2021/04/25 00:56:33;;;;;;;13.55;11.77;;;3.20;1.00;;;;;;5028706;28;20979;-66
2021/04/25 00:59:00;;;;;;;13.53;11.80;;;3.20;1.00;;;;;;5031281;28;20193;-66
2021/04/25 01:01:26;;;;;;;15.43;12.18;;;3.10;1.00;;;;;;5041818;28;20567;-66
2021/04/25 01:03:53;;;;;;;16.88;12.90;;;3.10;1.00;;;;;;5031200;28;20182;-64
2021/04/25 01:06:19;;;;;;;13.70;11.70;;;3.00;1.00;;;;;;5029803;28;20185;-65
2021/04/25 01:08:44;;;;;;;14.77;11.23;;;3.00;1.00;;;;;;5029870;28;20321;-65
2021/04/25 01:11:10;;;;;;;14.47;12.13;;;2.90;1.00;;;;;;5029433;28;20464;-65
2021/04/25 01:13:36;;;;;;;13.97;12.00;;;2.90;1.00;;;;;;5029608;28;20210;-65
2021/04/25 01:16:02;;;;;;;13.90;11.50;;;2.90;3.60;;;;;;5026688;28;20185;-66
2021/04/25 01:18:27;;;;;;;19.30;11.97;;;2.90;9.70;;;;;;5028377;28;20206;-66
2021/04/25 01:21:03;;;;;;;15.17;12.80;;;2.80;8.30;;;;;;5028624;28;20189;-65
2021/04/25 01:23:28;;;;;;;13.63;11.77;;;2.80;12.20;;;;;;5030237;28;20278;-65
2021/04/25 01:25:54;;;;;;;14.67;12.20;;;2.70;13.10;;;;;;5025210;28;20293;-65
2021/04/25 01:28:20;;;;;;;16.13;12.23;;;2.70;15.40;;;;;;5030900;28;20261;-66
2021/04/25 01:30:46;;;;;;;18.45;12.57;;;2.70;15.30;;;;;;5027491;28;20998;-67
2021/04/25 01:33:11;;;;;;;15.83;12.43;;;2.70;19.10;;;;;;5027909;28;20281;-67
2021/04/25 01:35:37;;;;;;;17.03;13.27;;;2.60;22.60;;;;;;5028288;28;20198;-66
2021/04/25 01:38:03;;;;;;;17.93;14.27;;;2.70;31.80;;;;;;5029126;28;20264;-67
2021/04/25 01:40:31;;;;;;;16.20;13.15;;;2.70;51.30;;;;;;5028870;28;20195;-66
2021/04/25 01:42:57;;;;;;;16.48;12.63;;;2.70;56.80;;;;;;5029600;28;20292;-66
2021/04/25 01:45:23;;;;;;;18.85;13.02;;;2.80;62.30;;;;;;5028989;28;20182;-66
2021/04/25 01:47:56;;;;;;;19.10;14.35;;;3.00;60.30;;;;;;5027804;28;20575;-67
2021/04/25 01:50:24;;;;;;;15.93;13.55;;;3.20;49.50;;;;;;5029738;28;20182;-66
2021/04/25 01:52:50;;;;;;;15.98;14.27;;;3.40;41.70;;;;;;5028716;28;20213;-66
2021/04/25 01:55:17;;;;;;;18.52;13.95;;;3.40;39.50;;;;;;5028545;28;20277;-66
2021/04/25 01:57:43;;;;;;;18.20;13.65;;;3.40;36.70;;;;;;5029277;28;20202;-66
2021/04/25 02:00:13;;;;;;;15.73;12.67;;;3.50;32.40;;;;;;5028878;28;20734;-66
2021/04/25 02:02:39;;;;;;;14.20;12.63;;;3.60;25.20;;;;;;5027955;28;20185;-65
2021/04/25 02:05:06;;;;;;;15.20;12.60;;;3.80;18.40;;;;;;5030064;28;20191;-65
2021/04/25 02:07:31;;;;;;;15.27;12.73;;;3.90;9.60;;;;;;5028512;28;20452;-65
2021/04/25 02:09:58;;;;;;;14.77;12.93;;;3.90;4.80;;;;;;5029310;28;20187;-66
2021/04/25 02:12:24;;;;;;;17.05;13.00;;;4.00;1.00;;;;;;5026403;28;20183;-66
2021/04/25 02:14:49;;;;;;;14.48;12.73;;;4.00;1.00;;;;;;5031132;28;20186;-65
2021/04/25 02:17:15;;;;;;;15.53;13.50;;;4.10;1.00;;;;;;5028046;28;20209;-65
2021/04/25 02:19:41;;;;;;;13.63;12.17;;;4.10;1.00;;;;;;5025523;28;20195;-65
2021/04/25 02:22:06;;;;;;;17.60;12.67;;;4.10;1.00;;;;;;5025666;28;20541;-66
2021/04/25 02:24:32;;;;;;;18.10;12.90;;;4.10;1.00;;;;;;5043935;28;20178;-65
2021/04/25 02:26:58;;;;;;;13.97;11.83;;;4.10;1.00;;;;;;5028614;28;20186;-65
2021/04/25 02:29:23;;;;;;;13.95;12.10;;;4.00;1.00;;;;;;5028646;28;20241;-64
2021/04/25 02:31:49;;;;;;;13.33;11.10;;;4.00;1.00;;;;;;5028708;28;20182;-65
2021/04/25 02:34:15;;;;;;;16.07;12.00;;;4.00;1.00;;;;;;5028301;28;20233;-65
2021/04/25 02:36:41;;;;;;;11.83;10.57;;;4.10;1.00;;;;;;5028029;28;20542;-65
2021/04/25 02:39:07;;;;;;;17.50;11.60;;;4.10;1.00;;;;;;5029597;28;20426;-66
2021/04/25 02:41:33;;;;;;;12.50;10.83;;;4.10;1.00;;;;;;5026772;28;20857;-66
2021/04/25 02:43:59;;;;;;;14.40;11.60;;;4.10;1.00;;;;;;5025275;28;20664;-66
2021/04/25 02:46:24;;;;;;;14.90;11.77;;;4.00;1.00;;;;;;5028557;28;20206;-68
2021/04/25 02:48:50;;;;;;;15.97;12.17;;;4.10;1.00;;;;;;5026787;28;20182;-66
2021/04/25 02:51:15;;;;;;;13.43;11.80;;;4.10;1.00;;;;;;5028724;28;20221;-66
2021/04/25 02:53:41;;;;;;;13.73;11.47;;;4.20;1.00;;;;;;5026676;28;20216;-66
2021/04/25 02:56:06;;;;;;;16.83;12.90;;;4.20;1.00;;;;;;5025762;28;20789;-66
2021/04/25 02:58:32;;;;;;;15.07;12.50;;;4.20;1.00;;;;;;5027205;28;20292;-65
2021/04/25 03:00:58;;;;;;;12.60;10.90;;;4.20;1.00;;;;;;5027679;28;20213;-67
2021/04/25 03:03:25;;;;;;;13.97;11.53;;;4.30;1.00;;;;;;5028228;28;20637;-66
2021/04/25 03:05:53;;;;;;;17.05;13.27;;;4.30;1.00;;;;;;5027904;28;20228;-66
2021/04/25 03:08:19;;;;;;;15.77;11.85;;;4.20;1.00;;;;;;5027147;28;20194;-66
2021/04/25 03:10:45;;;;;;;18.55;12.38;;;4.20;1.00;;;;;;5026215;28;20213;-65
2021/04/25 03:13:10;;;;;;;15.77;11.57;;;4.20;1.00;;;;;;5025942;28;20182;-67
2021/04/25 03:15:36;;;;;;;14.20;11.73;;;4.20;1.00;;;;;;5033575;28;20191;-66
2021/04/25 03:18:02;;;;;;;15.60;12.47;;;4.30;1.00;;;;;;5027268;28;20601;-65
2021/04/25 03:20:28;;;;;;;15.52;12.45;;;4.30;1.00;;;;;;5026370;28;20171;-66
2021/04/25 03:22:53;;;;;;;15.77;12.00;;;4.40;1.00;;;;;;5027487;28;20328;-66
2021/04/25 03:25:19;;;;;;;13.57;11.90;;;4.50;1.00;;;;;;5028186;28;20241;-66
2021/04/25 03:27:45;;;;;;;15.90;12.33;;;4.40;1.00;;;;;;5026919;28;20445;-66
2021/04/25 03:30:13;;;;;;;18.07;12.23;;;4.50;1.00;;;;;;5027319;28;20568;-67
2021/04/25 03:32:39;;;;;;;15.07;11.75;;;4.50;1.00;;;;;;5026803;28;20201;-67
2021/04/25 03:35:06;;;;;;;14.98;11.82;;;4.50;1.00;;;;;;5027589;28;20188;-66
2021/04/25 03:37:32;;;;;;;15.13;12.25;;;4.50;1.00;;;;;;5025706;28;20214;-66
2021/04/25 03:39:58;;;;;;;13.17;11.77;;;4.50;1.00;;;;;;5026636;28;20182;-66
2021/04/25 03:42:24;;;;;;;15.40;12.30;;;4.50;1.00;;;;;;5026213;28;20183;-66
2021/04/25 03:44:49;;;;;;;18.70;12.37;;;4.50;1.00;;;;;;5027572;28;20543;-67
2021/04/25 03:47:15;;;;;;;14.90;11.93;;;4.50;1.00;;;;;;5027669;28;20178;-66
2021/04/25 03:49:40;;;;;;;16.10;12.50;;;4.50;1.00;;;;;;5025190;28;20623;-66
2021/04/25 03:52:07;;;;;;;14.40;12.40;;;4.60;1.00;;;;;;5027694;28;20179;-66
2021/04/25 03:54:33;;;;;;;14.75;12.30;;;4.60;1.00;;;;;;5028165;28;20264;-66
2021/04/25 03:56:59;;;;;;;18.50;12.70;;;4.70;1.00;;;;;;5027505;28;20218;-66
2021/04/25 03:59:25;;;;;;;16.67;12.65;;;4.70;1.00;;;;;;5026572;28;20190;-66
2021/04/25 04:01:50;;;;;;;13.87;11.90;;;4.70;1.00;;;;;;5027997;28;20641;-66
2021/04/25 04:04:16;;;;;;;15.90;12.30;;;4.70;1.00;;;;;;5032330;28;20189;-66
2021/04/25 04:06:42;;;;;;;15.63;12.90;;;4.80;1.00;;;;;;5029972;28;20685;-65
2021/04/25 04:09:07;;;;;;;13.37;11.30;;;4.80;1.00;;;;;;5030412;28;20253;-66
2021/04/25 04:11:33;;;;;;;14.93;12.43;;;4.80;1.00;;;;;;5031129;28;20270;-66
2021/04/25 04:13:59;;;;;;;14.87;12.57;;;4.90;1.00;;;;;;5033958;28;20232;-67
2021/04/25 04:16:27;;;;;;;13.73;12.13;;;4.90;1.00;;;;;;5031453;28;20491;-66
2021/04/25 04:18:52;;;;;;;15.60;12.00;;;4.90;1.00;;;;;;5029656;28;20273;-65
2021/04/25 04:21:18;;;;;;;16.40;13.20;;;4.90;1.00;;;;;;5030842;28;20285;-66
2021/04/25 04:23:44;;;;;;;16.90;13.30;;;5.00;1.00;;;;;;5026114;28;20184;-66
2021/04/25 04:26:11;;;;;;;16.87;12.50;;;5.00;1.00;;;;;;5030317;28;20184;-66
2021/04/25 04:28:37;;;;;;;16.30;13.10;;;5.00;1.00;;;;;;5029968;28;20206;-66
2021/04/25 04:31:02;;;;;;;16.93;13.30;;;5.10;1.00;;;;;;5028895;28;20712;-67
2021/04/25 04:33:28;;;;;;;13.60;12.13;;;5.00;1.00;;;;;;5030121;28;20478;-66
2021/04/25 04:35:53;;;;;;;15.33;13.17;;;4.90;1.00;;;;;;5029277;28;20174;-65
2021/04/25 04:38:19;;;;;;;14.50;13.00;;;4.90;1.00;;;;;;5029400;28;20664;-66
2021/04/25 04:40:44;;;;;;;15.33;13.07;;;5.00;1.00;;;;;;5030922;28;20178;-67
2021/04/25 04:43:10;;;;;;;14.23;12.53;;;5.10;1.00;;;;;;5029316;28;20179;-65
2021/04/25 04:45:35;;;;;;;14.23;12.40;;;5.20;1.00;;;;;;5031467;28;20244;-67
2021/04/25 04:48:01;;;;;;;14.87;12.70;;;5.20;1.00;;;;;;5029622;28;20234;-65
2021/04/25 04:50:27;;;;;;;14.70;12.90;;;5.10;1.00;;;;;;5031360;28;20213;-66
2021/04/25 04:52:52;;;;;;;15.73;12.07;;;5.20;1.00;;;;;;5029283;28;20445;-65
2021/04/25 04:55:18;;;;;;;13.67;12.27;;;5.30;1.00;;;;;;5030455;28;20625;-66
2021/04/25 04:57:44;;;;;;;14.27;12.13;;;5.30;1.00;;;;;;5029628;28;20260;-65
2021/04/25 05:00:10;;;;;;;14.60;12.10;;;5.40;1.00;;;;;;5029281;28;20187;-64
2021/04/25 05:02:36;;;;;;;14.85;13.25;;;5.50;1.00;;;;;;5030042;28;20565;-65
2021/04/25 05:05:02;;;;;;;14.90;12.17;;;5.50;1.00;;;;;;5031261;28;20187;-65
2021/04/25 05:07:28;;;;;;;14.18;12.68;;;5.50;1.00;;;;;;5029337;28;21030;-65
2021/04/25 05:09:53;;;;;;;14.10;12.60;;;5.50;1.00;;;;;;5029282;28;20206;-65
2021/04/25 05:12:19;;;;;;;15.00;12.70;;;5.60;1.00;;;;;;5030081;28;20186;-65
2021/04/25 05:14:44;;;;;;;15.60;12.40;;;5.60;1.00;;;;;;5033489;28;20194;-65
2021/04/25 05:17:10;;;;;;;13.30;11.90;;;5.60;1.00;;;;;;5029812;28;20568;-65
2021/04/25 05:19:36;;;;;;;16.37;12.33;;;5.70;1.00;;;;;;5030397;28;20191;-64
2021/04/25 05:22:01;;;;;;;16.20;13.60;;;5.70;1.00;;;;;;5026187;28;20449;-64
2021/04/25 05:24:27;;;;;;;19.73;14.40;;;5.70;1.00;;;;;;5021492;28;20182;-65
2021/04/25 05:26:52;;;;;;;14.27;11.97;;;5.80;1.00;;;;;;5028396;28;20190;-65
2021/04/25 05:29:18;;;;;;;14.60;11.10;;;5.80;1.00;;;;;;5030222;28;20234;-66
2021/04/25 05:31:44;;;;;;;15.75;11.60;;;5.80;1.00;;;;;;5028732;28;20266;-66
2021/04/25 05:34:10;;;;;;;16.90;12.83;;;5.90;1.00;;;;;;5030604;28;20272;-66
2021/04/25 05:36:36;;;;;;;14.25;12.70;;;5.90;1.00;;;;;;5027604;28;20214;-66
2021/04/25 05:39:03;;;;;;;17.50;12.77;;;6.00;1.00;;;;;;5030273;28;21035;-67
2021/04/25 05:41:29;;;;;;;15.77;13.38;;;6.20;1.00;;;;;;5029898;28;20935;-66
2021/04/25 05:43:54;;;;;;;16.57;13.13;;;6.20;1.00;;;;;;5028065;28;20184;-66
2021/04/25 05:46:20;;;;;;;13.60;12.20;;;6.20;1.00;;;;;;5030605;28;20182;-66
2021/04/25 05:48:46;;;;;;;14.43;12.50;;;6.30;1.00;;;;;;5025781;28;20203;-66
2021/04/25 05:51:12;;;;;;;14.68;11.73;;;6.50;1.00;;;;;;5029640;28;20600;-66
2021/04/25 05:53:38;;;;;;;14.27;11.93;;;6.50;1.00;;;;;;5027682;28;20691;-66
2021/04/25 05:56:04;;;;;;;14.20;12.37;;;6.70;1.00;;;;;;5028527;28;20189;-66
2021/04/25 05:58:30;;;;;;;15.43;12.50;;;6.80;1.00;;;;;;5029791;28;20231;-66
2021/04/25 06:00:55;;;;;;;14.60;12.67;;;6.90;99.90;;;;;;5028946;28;20490;-66
2021/04/25 06:03:21;;;;;;;13.53;11.70;;;6.90;99.90;;;;;;5027861;28;20184;-66
2021/04/25 06:05:46;;;;;;;17.57;13.90;;;6.90;99.90;;;;;;5028646;28;20238;-66
2021/04/25 06:08:12;;;;;;;14.70;12.50;;;7.00;99.90;;;;;;5024709;28;20190;-66
2021/04/25 06:10:38;;;;;;;14.07;12.57;;;7.10;30.20;;;;;;5028491;28;20605;-66
2021/04/25 06:13:03;;;;;;;14.97;12.37;;;7.10;60.60;;;;;;5029218;28;20193;-66
2021/04/25 06:15:29;;;;;;;14.57;12.67;;;7.20;1.00;;;;;;5038994;28;20236;-66
2021/04/25 06:17:54;;;;;;;15.93;12.63;;;7.40;99.90;;;;;;5028477;28;20302;-66
2021/04/25 06:20:21;;;;;;;14.37;12.17;;;7.50;99.90;;;;;;5038575;28;20185;-64
2021/04/25 06:22:47;;;;;;;12.73;11.53;;;7.60;90.10;;;;;;5029083;28;20836;-64
2021/04/25 06:25:14;;;;;;;15.60;13.30;;;7.60;21.90;;;;;;5028049;28;20434;-65
2021/04/25 06:27:40;;;;;;;14.13;12.63;;;7.70;8.10;;;;;;5023201;28;20586;-65
2021/04/25 06:30:08;;;;;;;14.50;12.30;;;7.80;1.00;;;;;;5008261;28;20481;-65
2021/04/25 06:32:33;;;;;;;15.80;12.03;;;8.00;99.90;;;;;;5004167;28;21001;-64
2021/04/25 06:34:59;;;;;;;13.33;11.53;;;7.90;99.90;;;;;;5003593;28;20441;-65
2021/04/25 06:37:24;;;;;;;17.63;12.70;;;7.90;99.90;;;;;;5002699;28;20207;-65
2021/04/25 06:39:50;;;;;;;13.20;11.80;;;8.10;1.00;;;;;;5002461;28;20193;-65
2021/04/25 06:42:15;;;;;;;12.83;11.53;;;8.20;43.60;;;;;;5007460;28;20198;-66
2021/04/25 06:44:41;;;;;;;13.10;11.70;;;8.20;1.00;;;;;;5003667;28;20187;-66
2021/04/25 06:47:07;;;;;;;12.93;11.73;;;8.30;1.00;;;;;;5006567;28;20680;-66
2021/04/25 06:49:32;;;;;;;14.53;12.77;;;8.20;1.00;;;;;;5009542;28;20189;-66
2021/04/25 06:52:00;;;;;;;14.20;12.33;;;8.30;1.00;;;;;;5013620;28;20257;-67
2021/04/25 06:54:25;;;;;;;12.70;11.40;;;8.40;99.90;;;;;;5017106;28;20600;-66
2021/04/25 06:56:51;;;;;;;16.53;12.23;;;8.40;99.90;;;;;;5005208;28;20481;-66
2021/04/25 06:59:18;;;;;;;14.10;12.23;;;8.70;1.00;;;;;;5008908;28;20206;-65
2021/04/25 07:01:44;;;;;;;14.13;11.53;;;8.90;1.00;;;;;;5018706;28;20283;-66
2021/04/25 07:04:09;;;;;;;15.40;11.73;;;9.00;1.00;;;;;;5008704;28;20966;-65
2021/04/25 07:06:35;;;;;;;12.80;11.03;;;9.10;99.90;;;;;;5002269;28;20352;-65
2021/04/25 07:09:01;;;;;;;13.00;10.93;;;9.30;99.90;;;;;;5003164;28;20648;-65
2021/04/25 07:11:26;;;;;;;11.63;10.50;;;9.40;99.90;;;;;;5006173;28;20205;-67
2021/04/25 07:13:52;;;;;;;11.90;10.33;;;9.50;11.70;;;;;;5015810;28;20253;-65
2021/04/25 07:16:17;;;;;;;13.10;10.93;;;9.40;38.70;;;;;;5014927;28;20657;-66
2021/04/25 07:18:43;;;;;;;11.03;10.00;;;9.50;1.00;;;;;;5003274;28;20213;-66
2021/04/25 07:21:09;;;;;;;11.03;9.50;;;9.70;1.00;;;;;;5003137;28;20641;-65
2021/04/25 07:23:34;;;;;;;11.20;9.33;;;10.00;1.00;;;;;;5007648;28;20198;-60
2021/04/25 07:26:00;;;;;;;10.67;8.97;;;9.90;1.00;;;;;;5006049;28;20688;-59
2021/04/25 07:28:26;;;;;;;10.23;8.90;;;10.00;1.00;;;;;;5004771;28;20226;-62
2021/04/25 07:30:54;;;;;;;10.37;9.00;;;10.10;1.00;;;;;;5004444;28;20234;-62
2021/04/25 07:33:21;;;;;;;9.73;8.80;;;10.10;1.00;;;;;;5005457;28;20426;-60
2021/04/25 07:35:46;;;;;;;10.97;9.50;;;10.10;1.00;;;;;;5005909;28;20491;-61
2021/04/25 07:38:12;;;;;;;9.03;8.13;;;10.20;1.00;;;;;;5033246;28;20478;-61
2021/04/25 07:40:38;;;;;;;10.80;8.83;;;10.30;1.00;;;;;;5008539;28;20321;-61
2021/04/25 07:43:05;;;;;;;11.17;9.40;;;10.20;1.00;;;;;;5006915;28;20744;-61
2021/04/25 07:45:32;;;;;;;11.33;9.03;;;10.40;1.00;;;;;;5005862;28;20480;-60
2021/04/25 07:47:57;;;;;;;10.53;9.43;;;10.50;1.00;;;;;;5005755;28;20418;-60
2021/04/25 07:50:23;;;;;;;10.40;9.40;;;10.40;1.00;;;;;;5004716;28;20839;-61
2021/04/25 07:52:49;;;;;;;13.00;8.93;;;10.30;99.90;;;;;;5006398;28;20199;-61
2021/04/25 07:55:14;;;;;;;9.43;8.43;;;10.30;99.90;;;;;;5005815;28;20188;-61
2021/04/25 07:57:40;;;;;;;8.87;8.07;;;10.30;99.90;;;;;;5006286;28;20614;-60
2021/04/25 08:00:07;;;;;;;10.77;8.47;;;10.20;99.90;;;;;;5006389;28;20635;-61
2021/04/25 08:02:33;;;;;;;8.03;7.23;;;10.40;99.90;;;;;;5026959;28;20425;-61
2021/04/25 08:04:59;;;;;;;9.43;7.73;;;10.60;99.90;;;;;;5045926;28;20769;-61
2021/04/25 08:07:25;;;;;;;7.17;6.57;;;11.00;99.90;;;;;;5025254;28;20516;-60
2021/04/25 08:09:50;;;;;;;7.07;6.47;;;11.10;99.90;;;;;;5030160;28;20541;-60
2021/04/25 08:12:16;;;;;;;8.20;7.47;;;11.30;99.90;;;;;;5031227;28;20201;-61
2021/04/25 08:14:41;;;;;;;8.70;6.60;;;11.70;99.90;;;;;;5031916;28;20202;-61
2021/04/25 08:17:07;;;;;;;7.20;6.60;;;11.90;99.90;;;;;;5029729;28;20238;-61
2021/04/25 08:19:32;;;;;;;7.10;6.40;;;12.10;99.90;;;;;;5031677;28;20218;-61
2021/04/25 08:21:58;;;;;;;7.80;6.67;;;12.40;99.90;;;;;;5031611;28;20253;-61
2021/04/25 08:24:24;;;;;;;6.53;5.93;;;12.60;99.90;;;;;;5029178;28;20179;-61
2021/04/25 08:26:50;;;;;;;7.83;6.70;;;12.50;99.90;;;;;;5029901;28;20277;-61
2021/04/25 08:29:16;;;;;;;7.67;6.97;;;12.40;99.90;;;;;;5028656;28;20234;-60
2021/04/25 08:31:41;;;;;;;7.83;5.87;;;12.50;99.90;;;;;;5031489;28;20184;-61
2021/04/25 08:34:07;;;;;;;7.07;6.37;;;12.60;99.90;;;;;;5031473;28;20422;-61
2021/04/25 08:36:33;;;;;;;6.20;5.70;;;12.60;99.90;;;;;;5029388;28;20229;-60
2021/04/25 08:38:59;;;;;;;7.53;6.70;;;12.80;99.90;;;;;;5024684;28;20189;-61
2021/04/25 08:41:25;;;;;;;6.53;6.00;;;12.90;99.90;;;;;;5030072;28;20180;-61
2021/04/25 08:43:52;;;;;;;6.90;6.20;;;13.20;99.90;;;;;;5031046;28;20506;-61
2021/04/25 08:46:19;;;;;;;6.87;6.27;;;13.30;99.90;;;;;;5030883;28;20797;-61
2021/04/25 08:48:49;;;;;;;7.40;6.70;;;13.60;99.90;;;;;;5031045;28;20500;-61
2021/04/25 08:51:16;;;;;;;7.70;6.03;;;13.80;99.90;;;;;;5031053;28;20410;-61
2021/04/25 08:53:43;;;;;;;7.00;6.40;;;13.80;99.90;;;;;;5031039;28;20433;-61
2021/04/25 08:56:08;;;;;;;8.27;6.50;;;13.90;99.90;;;;;;5031127;28;21122;-61
2021/04/25 08:58:35;;;;;;;7.03;6.40;;;13.90;99.90;;;;;;5031440;28;20480;-61
2021/04/25 09:01:01;;;;;;;7.50;6.70;;;14.10;99.90;;;;;;5031061;28;20183;-60
2021/04/25 09:03:26;;;;;;;7.47;6.80;;;14.20;99.90;;;;;;5028552;28;20424;-61
2021/04/25 09:05:54;;;;;;;8.90;6.47;;;14.20;99.90;;;;;;5029617;28;20790;-62
2021/04/25 09:08:20;;;;;;;9.00;6.30;;;14.10;99.90;;;;;;5026683;28;20171;-62
2021/04/25 09:10:52;;;;;;;6.77;6.27;;;14.00;99.90;;;;;;5026308;28;20429;-62
2021/04/25 09:13:20;;;;;;;6.33;5.80;;;14.20;99.90;;;;;;5025576;28;20485;-61
2021/04/25 09:15:47;;;;;;;6.67;6.07;;;14.60;99.90;;;;;;5026506;28;20529;-60
2021/04/25 09:18:13;;;;;;;6.83;6.23;;;15.50;99.90;;;;;;5027984;28;20457;-58
2021/04/25 09:20:48;;;;;;;6.37;5.77;;;15.40;99.90;;;;;;5031591;28;20764;-61
2021/04/25 09:23:34;;;;;;;7.03;6.43;;;15.90;99.90;;;;;;5029828;28;20188;-60
2021/04/25 09:26:05;;;;;;;6.37;5.87;;;16.50;99.90;;;;;;5041330;28;20527;-61
2021/04/25 09:28:32;;;;;;;7.53;6.00;;;17.10;99.90;;;;;;5030286;28;20448;-61
2021/04/25 09:31:06;;;;;;;6.60;6.10;;;17.90;99.90;;;;;;5030045;28;20453;-61
2021/04/25 09:33:56;;;;;;;6.93;6.33;;;17.60;99.90;;;;;;5030296;28;20448;-61
2021/04/25 09:36:28;;;;;;;7.20;6.60;;;17.40;99.90;;;;;;5023163;28;20486;-59
2021/04/25 09:39:10;;;;;;;6.80;6.20;;;17.40;99.90;;;;;;5030029;28;20973;-62
2021/04/25 09:41:36;;;;;;;6.60;5.90;;;17.80;99.90;;;;;;5023892;28;20429;-61
2021/04/25 09:44:02;;;;;;;6.80;6.23;;;18.60;1.00;;;;;;5027587;28;20443;-61
2021/04/25 09:46:57;;;;;;;6.87;6.27;;;19.30;99.90;;;;;;5029936;28;20452;-61
2021/04/25 09:49:45;;;;;;;7.60;6.90;;;19.90;99.90;;;;;;5021060;28;20444;-60
2021/04/25 09:52:32;;;;;;;8.67;7.97;;;20.20;99.90;;;;;;5026478;28;20915;-61
2021/04/25 09:55:19;;;;;;;6.80;6.10;;;20.60;99.90;;;;;;5022910;28;20553;-62
2021/04/25 09:57:46;;;;;;;6.10;5.60;;;21.60;99.90;;;;;;5025788;28;20453;-60
2021/04/25 10:00:13;;;;;;;6.40;5.80;;;21.70;99.90;;;;;;5023586;28;20872;-61
2021/04/25 10:02:54;;;;;;;6.30;5.80;;;20.80;99.90;;;;;;5028866;28;20432;-61
2021/04/25 10:05:20;;;;;;;5.70;5.20;;;20.70;99.90;;;;;;5028219;28;20436;-61
2021/04/25 10:07:46;;;;;;;6.53;6.03;;;21.00;99.90;;;;;;5029045;28;20787;-61
2021/04/25 10:10:14;;;;;;;6.80;6.20;;;20.50;99.90;;;;;;5028532;28;20775;-61
2021/04/25 10:12:40;;;;;;;6.77;6.27;;;20.00;99.90;;;;;;5029090;28;20724;-61
2021/04/25 10:15:07;;;;;;;7.20;6.70;;;19.10;99.90;;;;;;5029448;28;20462;-61
2021/04/25 10:17:32;;;;;;;7.33;6.73;;;18.50;99.90;;;;;;5029308;28;20452;-60
2021/04/25 10:19:59;;;;;;;6.37;5.83;;;18.30;99.90;;;;;;5028133;28;20440;-60
2021/04/25 10:22:25;;;;;;;6.40;5.90;;;18.10;99.90;;;;;;5028265;28;20248;-61
2021/04/25 10:24:50;;;;;;;6.90;6.40;;;17.40;99.90;;;;;;5027354;28;20486;-60
2021/04/25 10:27:17;;;;;;;7.57;6.97;;;17.20;99.90;;;;;;5028386;28;20923;-60
2021/04/25 10:29:54;;;;;;;8.37;6.87;;;17.00;99.90;;;;;;5026434;28;20238;-62
2021/04/25 10:32:21;;;;;;;6.73;6.20;;;16.40;99.90;;;;;;5028451;28;20412;-62
2021/04/25 10:34:51;;;;;;;6.43;5.90;;;16.40;99.90;;;;;;5018526;28;20507;-64
2021/04/25 10:37:18;;;;;;;6.23;5.73;;;16.40;99.90;;;;;;5015250;28;20828;-61
2021/04/25 10:39:50;;;;;;;6.30;5.80;;;16.00;99.90;;;;;;5013235;28;20434;-61
2021/04/25 10:42:24;;;;;;;6.30;5.80;;;15.80;99.90;;;;;;5016652;28;20517;-63
2021/04/25 10:48:18;;;;;;;6.60;6.10;;;15.60;99.90;;;;;;5031365;28;20480;-61
2021/04/25 10:50:46;;;;;;;6.40;5.80;;;15.80;99.90;;;;;;5011775;28;20749;-60
2021/04/25 10:53:29;;;;;;;6.13;5.53;;;15.80;99.90;;;;;;5011372;28;20551;-60
2021/04/25 10:56:13;;;;;;;6.67;6.07;;;16.40;99.90;;;;;;5013461;28;20433;-58
2021/04/25 10:58:43;;;;;;;6.00;5.53;;;17.80;99.90;;;;;;5012146;28;20461;-60
2021/04/25 11:01:29;;;;;;;5.50;5.00;;;18.90;99.90;;;;;;5012951;28;20432;-60
2021/04/25 11:03:55;;;;;;;5.97;5.53;;;19.30;99.90;;;;;;5016383;28;20436;-60
2021/04/25 11:06:28;;;;;;;6.13;5.67;;;18.50;99.90;;;;;;5017555;28;20432;-61
2021/04/25 11:08:54;;;;;;;6.40;5.80;;;18.30;99.90;;;;;;5012186;28;20177;-60
2021/04/25 11:11:30;;;;;;;6.00;5.50;;;19.30;99.90;;;;;;5018030;28;20431;-60
2021/04/25 11:13:57;;;;;;;6.33;5.83;;;19.50;99.90;;;;;;5021850;28;20408;-60
2021/04/25 11:16:22;;;;;;;6.30;5.70;;;19.70;99.90;;;;;;5018266;28;20529;-60
2021/04/25 11:19:03;;;;;;;5.57;4.70;;;20.20;99.90;;;;;;5022804;28;21062;-60
2021/04/25 11:21:39;;;;;;;6.77;6.17;;;20.00;99.90;;;;;;5028024;28;20208;-60
2021/04/25 11:24:05;;;;;;;6.37;5.87;;;19.70;99.90;;;;;;5024157;28;20934;-61
2021/04/25 11:26:33;;;;;;;5.80;5.30;;;19.30;99.90;;;;;;5023728;28;20533;-61
2021/04/25 11:29:20;;;;;;;6.43;5.83;;;19.10;99.90;;;;;;5026538;28;20291;-60
2021/04/25 11:36:53;;;;;;;5.70;5.20;;;17.50;99.90;;;;;;5029576;28;20487;-60
2021/04/25 11:39:24;;;;;;;6.43;5.83;;;17.10;99.90;;;;;;5029212;28;20762;-60
2021/04/25 11:41:50;;;;;;;5.67;5.23;;;17.00;99.90;;;;;;5031061;28;20452;-61
2021/04/25 11:44:27;;;;;;;5.90;5.30;;;16.60;99.90;;;;;;5030638;28;20437;-60
2021/04/25 11:46:55;;;;;;;6.33;5.60;;;16.40;99.90;;;;;;5031129;28;20415;-61
2021/04/25 11:49:39;;;;;;;6.20;5.67;;;16.30;99.90;;;;;;5030429;28;20493;-61
2021/04/25 11:52:09;;;;;;;6.03;5.53;;;16.10;99.90;;;;;;5030713;28;20506;-61
2021/04/25 11:54:35;;;;;;;5.63;5.13;;;16.20;99.90;;;;;;5030132;28;20435;-62
2021/04/25 11:57:11;;;;;;;5.57;5.07;;;17.10;99.90;;;;;;5027691;28;20575;-62
2021/04/25 11:59:50;;;;;;;5.57;5.17;;;18.50;99.90;;;;;;5023698;28;20435;-62
2021/04/25 12:02:16;;;;;;;6.03;5.40;;;19.30;99.90;;;;;;5024848;28;21270;-60
2021/04/25 12:04:52;;;;;;;6.17;5.43;;;19.50;99.90;;;;;;5025230;28;20416;-60
2021/04/25 12:07:40;;;;;;;6.97;6.27;;;18.80;99.90;;;;;;5024564;28;20272;-61
2021/04/25 12:10:30;;;;;;;6.30;5.70;;;18.40;99.90;;;;;;5024779;28;20433;-61
2021/04/25 12:13:02;;;;;;;5.60;5.13;;;17.80;99.90;;;;;;5022890;28;20425;-59
2021/04/25 12:15:36;;;;;;;6.50;5.90;;;17.40;99.90;;;;;;5013346;28;20433;-58
2021/04/25 12:18:01;;;;;;;5.70;5.20;;;17.00;99.90;;;;;;5017773;28;20475;-60
2021/04/25 12:20:28;;;;;;;7.80;5.40;;;16.60;99.90;;;;;;5018020;28;21384;-61
2021/04/25 12:22:54;;;;;;;6.00;5.40;;;16.40;99.90;;;;;;5010840;28;20171;-61
2021/04/25 12:25:20;;;;;;;5.93;5.47;;;16.40;99.90;;;;;;5015159;28;20451;-60
2021/04/25 12:27:54;;;;;;;5.87;5.47;;;16.20;99.90;;;;;;5014852;28;20186;-61
2021/04/25 12:30:30;;;;;;;6.03;5.53;;;15.80;99.90;;;;;;5017262;28;20475;-61
2021/04/25 12:33:01;;;;;;;7.03;6.43;;;15.70;99.90;;;;;;5019857;28;20409;-61
2021/04/25 12:35:26;;;;;;;5.70;5.30;;;15.40;99.90;;;;;;5018347;28;20427;-61
2021/04/25 12:37:52;;;;;;;6.50;5.90;;;15.10;99.90;;;;;;5017794;28;20462;-64
2021/04/25 12:40:33;;;;;;;5.80;5.40;;;14.70;99.90;;;;;;5021958;28;20193;-61
2021/04/25 12:43:15;;;;;;;6.90;5.80;;;14.40;99.90;;;;;;5024046;28;20171;-62
2021/04/25 12:45:45;;;;;;;6.37;5.80;;;14.20;99.90;;;;;;5019046;28;20528;-61
2021/04/25 12:48:39;;;;;;;6.40;5.90;;;14.10;99.90;;;;;;5030256;28;20435;-61
2021/04/25 12:51:15;;;;;;;6.47;5.87;;;13.80;99.90;;;;;;5027558;28;20481;-62
2021/04/25 12:54:05;;;;;;;6.33;5.83;;;13.60;99.90;;;;;;5030105;28;20431;-62
2021/04/25 12:56:39;;;;;;;5.83;5.33;;;13.30;99.90;;;;;;5016823;28;20443;-61